Albion, Pennsylvania
Current Conditions -  °F | °C
As of 3:08 PM on Thursday 29 Jan 2015 (Local Time) from KERI Reporting Station
Light Snow Light Snow  
Wind Chill: 25°   Ceiling: 1500
Heat Index: 34°   Visibility: 3mi
Dew Point: 30°   Wind: 14mph
Humidity: 85%   Direction: 190°S
Pressure: 29.73"   Gusts: NA
Location:  41.89°N, 80.36°W
Report Text: KERI 292008Z 19012KT 3SM -SN BR BKN015 OVC024 01/M01 A2973 RMK AO2 P0001 T00111011
Loading
Personal Weather Stations






























Interactive Weather Map New forecast layout! Learn more

10-Day Weather Forecast

Advertisements
Track Severe Weather on mobile